createdAt,value
2022-10-09T00:01:02.914Z,10.60
2022-10-09T00:03:30.059Z,10.50
2022-10-09T00:05:57.047Z,10.40
2022-10-09T00:08:24.102Z,10.40
2022-10-09T00:10:51.349Z,10.60
2022-10-09T00:13:18.436Z,10.70
2022-10-09T00:15:46.419Z,10.60
2022-10-09T00:18:16.647Z,10.60
2022-10-09T00:20:46.414Z,10.50
2022-10-09T00:23:16.659Z,10.30
2022-10-09T00:25:56.718Z,10.30
2022-10-09T00:28:25.730Z,10.40
2022-10-09T00:30:53.332Z,10.30
2022-10-09T00:33:22.179Z,10.50
2022-10-09T00:35:49.942Z,10.50
2022-10-09T00:38:16.917Z,10.40
2022-10-09T00:40:44.180Z,10.40
2022-10-09T00:43:16.257Z,10.40
2022-10-09T00:45:54.128Z,10.30
2022-10-09T00:48:21.964Z,10.20
2022-10-09T00:50:57.819Z,10.20
2022-10-09T00:53:27.972Z,10.40
2022-10-09T00:55:55.008Z,10.30
2022-10-09T00:58:23.891Z,10.20
2022-10-09T01:00:50.941Z,10.20
2022-10-09T01:03:17.749Z,10.20
2022-10-09T01:06:28.928Z,10.20
2022-10-09T01:09:14.063Z,10.40
2022-10-09T01:11:58.933Z,10.60
2022-10-09T01:14:29.752Z,10.70
2022-10-09T01:17:25.036Z,10.60
2022-10-09T01:20:23.118Z,10.60
2022-10-09T01:23:02.203Z,10.40
2022-10-09T01:25:41.719Z,10.40
2022-10-09T01:28:10.565Z,10.40
2022-10-09T01:30:38.567Z,10.80
2022-10-09T01:33:06.359Z,10.40
2022-10-09T01:35:33.395Z,10.30
2022-10-09T01:38:02.454Z,10.40
2022-10-09T01:40:29.780Z,10.40
2022-10-09T01:42:58.364Z,10.20
2022-10-09T01:45:37.269Z,10.10
2022-10-09T01:48:04.826Z,10.10
2022-10-09T01:50:35.877Z,10.10
2022-10-09T01:53:10.387Z,10.00
2022-10-09T01:55:58.870Z,10.10
2022-10-09T01:58:48.723Z,9.90
2022-10-09T02:01:19.409Z,10.00
2022-10-09T02:03:49.858Z,10.20
2022-10-09T02:06:19.214Z,10.20
2022-10-09T02:08:50.288Z,10.20
2022-10-09T02:11:17.725Z,10.50
2022-10-09T02:13:46.748Z,10.30
2022-10-09T02:16:19.027Z,10.00
2022-10-09T02:18:49.910Z,9.90
2022-10-09T02:21:23.247Z,9.90
2022-10-09T02:23:51.134Z,9.80
2022-10-09T02:26:19.484Z,9.70
2022-10-09T02:28:46.776Z,10.20
2022-10-09T02:31:25.660Z,10.00
2022-10-09T02:34:00.734Z,9.70
2022-10-09T02:36:28.701Z,9.70
2022-10-09T02:38:55.900Z,9.60
2022-10-09T02:41:23.854Z,9.60
2022-10-09T02:43:51.053Z,9.80
2022-10-09T02:46:18.458Z,9.90
2022-10-09T02:48:45.306Z,9.70
2022-10-09T02:51:12.285Z,9.70
2022-10-09T02:53:39.273Z,9.80
2022-10-09T02:56:06.291Z,9.70
2022-10-09T02:58:35.610Z,9.60
2022-10-09T03:01:03.188Z,9.70
2022-10-09T03:03:30.448Z,9.70
2022-10-09T03:06:10.956Z,9.60
2022-10-09T03:08:40.262Z,9.60
2022-10-09T03:11:07.760Z,9.40
2022-10-09T03:13:34.749Z,9.30
2022-10-09T03:16:06.701Z,9.60
2022-10-09T03:18:33.847Z,9.50
2022-10-09T03:21:00.786Z,9.30
2022-10-09T03:23:28.108Z,9.20
2022-10-09T03:26:04.065Z,9.30
2022-10-09T03:28:31.730Z,9.30
2022-10-09T03:30:58.741Z,9.40
2022-10-09T03:33:25.905Z,9.50
2022-10-09T03:35:52.734Z,9.50
2022-10-09T03:38:19.610Z,9.50
2022-10-09T03:40:46.595Z,9.60
2022-10-09T03:43:13.717Z,9.70
2022-10-09T03:45:42.060Z,9.70
2022-10-09T03:48:13.385Z,9.70
2022-10-09T03:50:40.944Z,9.80
2022-10-09T03:53:09.471Z,9.70
2022-10-09T03:55:39.381Z,9.70
2022-10-09T03:58:07.541Z,9.70
2022-10-09T04:00:35.215Z,9.70
2022-10-09T04:03:02.168Z,9.80
2022-10-09T04:05:32.588Z,9.80
2022-10-09T04:07:59.382Z,9.70
2022-10-09T04:10:26.234Z,9.70
2022-10-09T04:12:53.171Z,9.80
2022-10-09T04:15:20.323Z,9.80
2022-10-09T04:17:47.237Z,9.80
2022-10-09T04:20:14.469Z,9.70
2022-10-09T04:22:41.555Z,9.80
2022-10-09T04:25:09.156Z,9.80
2022-10-09T04:27:36.589Z,9.80
2022-10-09T04:30:05.442Z,9.80
2022-10-09T04:32:32.493Z,9.80
2022-10-09T04:34:59.410Z,9.90
2022-10-09T04:37:26.282Z,9.80
2022-10-09T04:39:53.133Z,9.80
2022-10-09T04:42:20.062Z,9.90
2022-10-09T04:44:46.851Z,9.90
2022-10-09T04:47:13.641Z,10.00
2022-10-09T04:49:40.578Z,9.90
2022-10-09T04:52:07.659Z,10.00
2022-10-09T04:54:34.581Z,9.90
2022-10-09T04:57:01.444Z,9.90
2022-10-09T04:59:28.560Z,9.70
2022-10-09T05:01:55.563Z,9.80
2022-10-09T05:04:22.500Z,9.70
2022-10-09T05:06:49.308Z,9.70
2022-10-09T05:09:17.371Z,9.60
2022-10-09T05:11:44.253Z,9.70
2022-10-09T05:14:11.219Z,9.70
2022-10-09T05:16:55.284Z,9.60
2022-10-09T05:19:25.731Z,9.60
2022-10-09T05:21:52.573Z,9.60
2022-10-09T05:24:19.878Z,9.60
2022-10-09T05:26:46.820Z,9.70
2022-10-09T05:29:13.836Z,9.70
2022-10-09T05:31:40.647Z,9.60
2022-10-09T05:34:07.545Z,9.60
2022-10-09T05:36:34.360Z,9.50
2022-10-09T05:39:01.565Z,9.60
2022-10-09T05:41:29.768Z,9.50
2022-10-09T05:44:01.478Z,9.50
2022-10-09T05:46:30.298Z,9.50
2022-10-09T05:49:05.386Z,9.40
2022-10-09T05:51:37.806Z,9.40
2022-10-09T05:54:06.242Z,9.40
2022-10-09T05:56:36.263Z,9.40
2022-10-09T05:59:09.747Z,9.60
2022-10-09T06:01:40.058Z,9.50
2022-10-09T06:04:11.008Z,9.50
2022-10-09T06:06:40.644Z,9.60
2022-10-09T06:09:10.105Z,9.50
2022-10-09T06:11:39.606Z,9.50
2022-10-09T06:14:08.845Z,9.50
2022-10-09T06:16:38.836Z,9.50
2022-10-09T06:19:07.547Z,9.40
2022-10-09T06:21:34.513Z,9.50
2022-10-09T06:24:03.126Z,9.50
2022-10-09T06:26:30.996Z,9.50
2022-10-09T06:28:59.849Z,9.50
2022-10-09T06:31:32.298Z,9.70
2022-10-09T06:34:01.089Z,9.60
2022-10-09T06:36:30.513Z,9.70
2022-10-09T06:39:00.544Z,9.70
2022-10-09T06:41:29.263Z,9.80
2022-10-09T06:43:58.536Z,9.80
2022-10-09T06:46:28.926Z,9.90
2022-10-09T06:48:56.010Z,9.90
2022-10-09T06:51:25.106Z,9.90
2022-10-09T06:53:54.034Z,9.90
2022-10-09T06:56:22.855Z,9.90
2022-10-09T06:58:50.123Z,10.00
2022-10-09T07:01:27.105Z,10.20
2022-10-09T07:03:56.847Z,10.10
2022-10-09T07:06:29.758Z,10.20
2022-10-09T07:09:06.565Z,10.30
2022-10-09T07:11:36.133Z,10.30
2022-10-09T07:14:06.588Z,10.50
2022-10-09T07:16:37.117Z,10.60
2022-10-09T07:19:07.708Z,10.60
2022-10-09T07:21:36.020Z,10.70
2022-10-09T07:24:04.719Z,10.60
2022-10-09T07:26:34.070Z,10.60
2022-10-09T07:29:01.699Z,10.70
2022-10-09T07:31:29.543Z,10.80
2022-10-09T07:33:57.833Z,10.80
2022-10-09T07:36:25.079Z,10.90
2022-10-09T07:38:54.185Z,11.20
2022-10-09T07:41:22.711Z,11.20
2022-10-09T07:43:50.334Z,11.20
2022-10-09T07:46:20.459Z,11.30
2022-10-09T07:48:48.046Z,11.50
2022-10-09T07:51:23.803Z,11.50
2022-10-09T07:53:51.427Z,11.60
2022-10-09T07:56:21.337Z,12.00
2022-10-09T07:59:00.219Z,12.10
2022-10-09T08:01:28.490Z,12.30
2022-10-09T08:03:56.011Z,12.40
2022-10-09T08:06:24.373Z,12.50
2022-10-09T08:08:57.047Z,12.60
2022-10-09T08:11:31.339Z,12.80
2022-10-09T08:13:58.872Z,12.80
2022-10-09T08:16:27.429Z,13.00
2022-10-09T08:19:00.705Z,12.90
2022-10-09T08:21:28.710Z,13.20
2022-10-09T08:23:58.011Z,13.40
2022-10-09T08:26:27.143Z,13.50
2022-10-09T08:28:57.403Z,13.60
2022-10-09T08:31:25.472Z,13.70
2022-10-09T08:33:57.442Z,13.70
2022-10-09T08:36:25.387Z,13.90
2022-10-09T08:38:52.880Z,14.20
2022-10-09T08:41:40.359Z,14.10
2022-10-09T08:44:41.071Z,14.50
2022-10-09T08:47:19.920Z,14.90
2022-10-09T08:50:09.189Z,14.80
2022-10-09T08:52:55.975Z,15.00
2022-10-09T08:55:40.140Z,15.00
2022-10-09T08:58:14.259Z,15.10
2022-10-09T09:00:52.345Z,15.20
2022-10-09T09:04:02.211Z,15.50
2022-10-09T09:06:52.728Z,15.60
2022-10-09T09:09:22.665Z,15.80
2022-10-09T09:12:01.521Z,16.00
2022-10-09T09:14:46.947Z,15.90
2022-10-09T09:17:22.780Z,16.20
2022-10-09T09:20:20.580Z,16.20
2022-10-09T09:22:50.304Z,16.40
2022-10-09T09:25:24.070Z,16.70
2022-10-09T09:27:54.187Z,16.90
2022-10-09T09:30:28.352Z,16.80
2022-10-09T09:33:06.636Z,17.10
2022-10-09T09:35:56.057Z,17.40
2022-10-09T09:38:23.186Z,17.50
2022-10-09T09:40:50.974Z,17.50
2022-10-09T09:43:27.056Z,17.70
2022-10-09T09:45:56.254Z,18.00
2022-10-09T09:48:23.488Z,18.10
2022-10-09T09:51:10.220Z,18.30
2022-10-09T09:53:44.658Z,18.20
2022-10-09T09:56:12.179Z,18.30
2022-10-09T09:58:49.220Z,18.20
2022-10-09T10:01:31.047Z,18.20
2022-10-09T10:04:01.185Z,18.30
2022-10-09T10:06:33.966Z,18.30
2022-10-09T10:09:02.665Z,18.60
2022-10-09T10:11:31.801Z,19.00
2022-10-09T10:14:09.087Z,18.90
2022-10-09T10:16:39.259Z,18.90
2022-10-09T10:19:06.821Z,19.20
2022-10-09T10:22:04.453Z,19.30
2022-10-09T10:24:42.743Z,19.40
2022-10-09T10:27:31.048Z,19.40
2022-10-09T10:30:07.783Z,19.70
2022-10-09T10:33:17.036Z,19.50
2022-10-09T10:35:44.649Z,19.90
2022-10-09T10:38:32.692Z,19.70
2022-10-09T10:41:29.267Z,19.70
2022-10-09T10:44:07.901Z,20.10
2022-10-09T10:46:41.720Z,20.10
2022-10-09T10:49:14.005Z,20.30
2022-10-09T10:51:59.100Z,20.50
2022-10-09T10:54:46.593Z,20.30
2022-10-09T10:57:27.249Z,20.80
2022-10-09T11:00:07.253Z,20.90
2022-10-09T11:02:51.959Z,20.80
2022-10-09T11:05:50.385Z,20.90
2022-10-09T11:08:35.739Z,20.80
2022-10-09T11:11:09.763Z,20.80
2022-10-09T11:14:17.833Z,21.00
2022-10-09T11:17:02.261Z,21.40
2022-10-09T11:19:45.633Z,21.50
2022-10-09T11:22:31.424Z,21.70
2022-10-09T11:24:58.541Z,21.60
2022-10-09T11:27:34.485Z,21.80
2022-10-09T11:30:11.234Z,22.20
2022-10-09T11:32:53.534Z,22.20
2022-10-09T11:35:28.031Z,22.10
2022-10-09T11:38:14.574Z,21.90
2022-10-09T11:40:43.229Z,22.40
2022-10-09T11:43:25.199Z,22.50
2022-10-09T11:45:58.091Z,22.70
2022-10-09T11:48:39.590Z,22.30
2022-10-09T11:51:44.789Z,21.80
2022-10-09T11:54:16.465Z,22.00
2022-10-09T11:56:58.676Z,21.80
2022-10-09T11:59:30.735Z,22.30
2022-10-09T12:01:59.775Z,22.20
2022-10-09T12:04:53.537Z,22.40
2022-10-09T12:07:34.626Z,22.30
2022-10-09T12:10:21.557Z,22.00
2022-10-09T12:13:02.064Z,22.10
2022-10-09T12:15:59.602Z,21.90
2022-10-09T12:18:30.835Z,22.00
2022-10-09T12:21:01.668Z,22.00
2022-10-09T12:23:32.676Z,22.10
2022-10-09T12:26:01.761Z,22.10
2022-10-09T12:28:56.538Z,22.10
2022-10-09T12:31:32.763Z,22.00
2022-10-09T12:34:04.950Z,22.00
2022-10-09T12:36:32.526Z,21.70
2022-10-09T12:39:14.078Z,21.60
2022-10-09T12:41:44.287Z,21.70
2022-10-09T12:44:38.688Z,21.80
2022-10-09T12:47:13.151Z,21.70
2022-10-09T12:49:40.292Z,21.80
2022-10-09T12:52:15.849Z,21.90
2022-10-09T12:54:44.821Z,21.80
2022-10-09T12:57:16.742Z,22.00
2022-10-09T12:59:45.943Z,22.20
2022-10-09T13:02:17.238Z,22.40
2022-10-09T13:04:57.493Z,22.30
2022-10-09T13:07:27.701Z,22.30
2022-10-09T13:10:08.584Z,22.30
2022-10-09T13:12:35.894Z,22.30
2022-10-09T13:15:24.868Z,22.30
2022-10-09T13:17:52.057Z,22.10
2022-10-09T13:20:18.923Z,21.90
2022-10-09T13:23:00.298Z,21.70
2022-10-09T13:25:32.207Z,22.00
2022-10-09T13:27:59.104Z,22.10
2022-10-09T13:30:28.315Z,22.30
2022-10-09T13:32:55.298Z,22.70
2022-10-09T13:35:22.379Z,23.00
2022-10-09T13:37:49.758Z,22.90
2022-10-09T13:40:20.921Z,22.80
2022-10-09T13:42:56.506Z,22.80
2022-10-09T13:45:23.823Z,23.20
2022-10-09T13:47:51.246Z,23.30
2022-10-09T13:50:19.806Z,23.40
2022-10-09T13:52:46.934Z,23.80
2022-10-09T13:55:14.689Z,23.40
2022-10-09T13:57:41.809Z,23.10
2022-10-09T14:00:09.436Z,23.40
2022-10-09T14:02:36.546Z,23.30
2022-10-09T14:05:03.533Z,23.20
2022-10-09T14:07:30.572Z,23.60
2022-10-09T14:09:57.490Z,23.60
2022-10-09T14:12:24.395Z,23.10
2022-10-09T14:14:52.702Z,23.60
2022-10-09T14:17:19.769Z,23.40
2022-10-09T14:19:46.884Z,23.30
2022-10-09T14:22:14.750Z,23.10
2022-10-09T14:24:42.041Z,22.80
2022-10-09T14:27:09.015Z,22.90
2022-10-09T14:29:38.196Z,22.80
2022-10-09T14:32:06.003Z,22.60
2022-10-09T14:34:33.141Z,22.70
2022-10-09T14:37:00.146Z,22.70
2022-10-09T14:39:27.118Z,22.60
2022-10-09T14:41:54.153Z,22.20
2022-10-09T14:44:21.414Z,22.30
2022-10-09T14:46:48.727Z,22.50
2022-10-09T14:49:15.784Z,21.90
2022-10-09T14:51:42.804Z,22.10
2022-10-09T14:54:11.770Z,22.10
2022-10-09T14:56:38.714Z,22.20
2022-10-09T14:59:06.154Z,22.00
2022-10-09T15:01:34.457Z,21.90
2022-10-09T15:04:02.255Z,22.10
2022-10-09T15:06:29.416Z,22.20
2022-10-09T15:09:05.416Z,22.50
2022-10-09T15:11:34.181Z,22.40
2022-10-09T15:14:01.109Z,22.30
2022-10-09T15:16:27.972Z,22.00
2022-10-09T15:18:56.118Z,21.90
2022-10-09T15:21:29.574Z,21.80
2022-10-09T15:23:58.510Z,21.80
2022-10-09T15:26:26.981Z,21.60
2022-10-09T15:28:54.265Z,21.80
2022-10-09T15:31:28.534Z,21.70
2022-10-09T15:33:57.440Z,21.90
2022-10-09T15:36:24.883Z,21.60
2022-10-09T15:38:51.813Z,21.60
2022-10-09T15:41:31.566Z,21.60
2022-10-09T15:44:02.034Z,21.20
2022-10-09T15:46:29.842Z,21.00
2022-10-09T15:48:56.755Z,20.60
2022-10-09T15:51:24.878Z,20.70
2022-10-09T15:53:53.201Z,20.60
2022-10-09T15:56:23.672Z,20.50
2022-10-09T15:58:51.873Z,20.40
2022-10-09T16:01:19.316Z,20.20
2022-10-09T16:03:47.008Z,20.10
2022-10-09T16:06:17.226Z,20.00
2022-10-09T16:08:46.081Z,20.00
2022-10-09T16:11:14.838Z,19.90
2022-10-09T16:13:44.254Z,19.90
2022-10-09T16:16:19.023Z,19.80
2022-10-09T16:18:46.516Z,19.80
2022-10-09T16:21:15.979Z,20.00
2022-10-09T16:23:44.140Z,20.00
2022-10-09T16:26:13.817Z,19.90
2022-10-09T16:28:40.683Z,19.70
2022-10-09T16:31:09.023Z,19.70
2022-10-09T16:33:35.927Z,19.60
2022-10-09T16:36:12.838Z,19.70
2022-10-09T16:38:40.398Z,19.70
2022-10-09T16:41:09.605Z,19.40
2022-10-09T16:43:37.561Z,19.30
2022-10-09T16:46:21.827Z,19.40
2022-10-09T16:48:50.175Z,19.30
2022-10-09T16:51:21.169Z,19.20
2022-10-09T16:53:53.820Z,19.10
2022-10-09T16:56:23.901Z,19.00
2022-10-09T16:58:54.813Z,19.00
2022-10-09T17:01:22.125Z,18.80
2022-10-09T17:03:48.946Z,18.70
2022-10-09T17:06:23.826Z,18.60
2022-10-09T17:08:55.766Z,18.50
2022-10-09T17:11:24.618Z,18.50
2022-10-09T17:13:56.598Z,18.30
2022-10-09T17:16:26.459Z,18.20
2022-10-09T17:18:54.468Z,18.00
2022-10-09T17:21:21.554Z,18.00
2022-10-09T17:23:52.578Z,17.90
2022-10-09T17:26:20.842Z,17.90
2022-10-09T17:28:48.680Z,17.70
2022-10-09T17:31:18.761Z,17.60
2022-10-09T17:33:48.264Z,17.60
2022-10-09T17:36:18.731Z,17.50
2022-10-09T17:38:46.440Z,17.40
2022-10-09T17:41:15.405Z,17.20
2022-10-09T17:43:42.567Z,17.30
2022-10-09T17:46:10.091Z,17.40
2022-10-09T17:48:44.026Z,17.30
2022-10-09T17:51:15.486Z,17.20
2022-10-09T17:53:42.596Z,17.10
2022-10-09T17:56:10.458Z,17.00
2022-10-09T17:58:38.022Z,17.10
2022-10-09T18:01:07.397Z,17.10
2022-10-09T18:03:34.832Z,17.10
2022-10-09T18:06:05.346Z,17.20
2022-10-09T18:08:32.427Z,17.10
2022-10-09T18:11:07.960Z,17.10
2022-10-09T18:13:38.031Z,17.00
2022-10-09T18:16:07.315Z,16.90
2022-10-09T18:18:34.886Z,16.70
2022-10-09T18:21:08.236Z,16.50
2022-10-09T18:23:35.263Z,16.60
2022-10-09T18:26:07.367Z,16.50
2022-10-09T18:28:34.660Z,16.40
2022-10-09T18:31:13.910Z,16.30
2022-10-09T18:33:40.978Z,16.20
2022-10-09T18:36:14.016Z,16.10
2022-10-09T18:38:41.139Z,16.10
2022-10-09T18:41:09.084Z,16.00
2022-10-09T18:43:36.374Z,16.00
2022-10-09T18:46:03.687Z,16.00
2022-10-09T18:48:32.441Z,16.00
2022-10-09T18:51:00.550Z,15.80
2022-10-09T18:53:29.187Z,15.80
2022-10-09T18:55:56.084Z,15.80
2022-10-09T18:58:23.177Z,15.80
2022-10-09T19:00:50.137Z,15.70
2022-10-09T19:03:17.080Z,15.60
2022-10-09T19:05:45.130Z,15.50
2022-10-09T19:08:12.030Z,15.50
2022-10-09T19:10:38.981Z,15.50
2022-10-09T19:13:05.989Z,15.30
2022-10-09T19:15:32.787Z,15.20
2022-10-09T19:17:59.737Z,15.10
2022-10-09T19:20:28.952Z,15.10
2022-10-09T19:22:55.733Z,15.00
2022-10-09T19:25:22.689Z,14.90
2022-10-09T19:27:49.875Z,15.00
2022-10-09T19:30:17.643Z,14.90
2022-10-09T19:32:44.630Z,14.90
2022-10-09T19:35:11.464Z,14.90
2022-10-09T19:37:38.308Z,14.80
2022-10-09T19:40:05.818Z,14.80
2022-10-09T19:42:32.774Z,14.90
2022-10-09T19:44:59.746Z,14.80
2022-10-09T19:47:26.644Z,14.90
2022-10-09T19:49:53.441Z,14.80
2022-10-09T19:52:20.382Z,14.80
2022-10-09T19:54:47.342Z,14.90
2022-10-09T19:57:14.312Z,14.70
2022-10-09T19:59:41.620Z,14.80
2022-10-09T20:02:08.786Z,14.80
2022-10-09T20:04:35.620Z,14.60
2022-10-09T20:07:02.566Z,14.60
2022-10-09T20:09:29.844Z,14.60
2022-10-09T20:11:56.890Z,14.60
2022-10-09T20:14:25.382Z,14.60
2022-10-09T20:16:52.420Z,14.60
2022-10-09T20:19:19.581Z,14.60
2022-10-09T20:21:46.659Z,14.60
2022-10-09T20:24:13.555Z,14.60
2022-10-09T20:26:43.136Z,14.70
2022-10-09T20:29:10.166Z,14.80
2022-10-09T20:31:37.049Z,14.90
2022-10-09T20:34:03.990Z,14.90
2022-10-09T20:36:35.515Z,14.80
2022-10-09T20:39:06.131Z,14.80
2022-10-09T20:41:33.352Z,14.80
2022-10-09T20:44:01.831Z,14.90
2022-10-09T20:46:30.716Z,14.80
2022-10-09T20:48:58.078Z,14.80
2022-10-09T20:51:25.626Z,14.70
2022-10-09T20:53:55.971Z,14.70
2022-10-09T20:56:24.706Z,14.80
2022-10-09T20:58:51.866Z,14.80
2022-10-09T21:01:19.718Z,14.60
2022-10-09T21:03:47.195Z,14.70
2022-10-09T21:06:17.453Z,14.70
2022-10-09T21:08:44.510Z,14.60
2022-10-09T21:11:16.767Z,14.70
2022-10-09T21:13:44.977Z,14.70
2022-10-09T21:16:14.960Z,14.70
2022-10-09T21:18:42.140Z,14.60
2022-10-09T21:21:12.900Z,14.70
2022-10-09T21:23:40.626Z,14.70
2022-10-09T21:26:12.657Z,14.80
2022-10-09T21:28:40.256Z,14.80
2022-10-09T21:31:13.134Z,14.90
2022-10-09T21:33:40.020Z,14.90
2022-10-09T21:36:17.815Z,14.90
2022-10-09T21:38:44.744Z,15.10
2022-10-09T21:41:11.501Z,14.90
2022-10-09T21:43:38.519Z,15.00
2022-10-09T21:46:05.537Z,15.00
2022-10-09T21:48:32.502Z,15.00
2022-10-09T21:50:59.367Z,15.00
2022-10-09T21:53:26.400Z,14.90
2022-10-09T21:55:53.464Z,14.70
2022-10-09T21:58:20.649Z,14.70
2022-10-09T22:00:55.647Z,14.70
2022-10-09T22:03:25.551Z,14.80
2022-10-09T22:05:52.704Z,14.90
2022-10-09T22:08:20.070Z,14.80
2022-10-09T22:10:48.059Z,14.60
2022-10-09T22:13:15.261Z,14.70
2022-10-09T22:15:43.322Z,14.70
2022-10-09T22:18:12.566Z,14.80
2022-10-09T22:20:45.085Z,14.60
2022-10-09T22:23:13.731Z,14.50
2022-10-09T22:25:40.490Z,14.50
2022-10-09T22:28:07.853Z,14.60
2022-10-09T22:30:36.008Z,14.50
2022-10-09T22:33:02.965Z,14.20
2022-10-09T22:35:29.953Z,13.90
2022-10-09T22:37:57.571Z,14.00
2022-10-09T22:40:24.483Z,13.90
2022-10-09T22:42:51.900Z,13.80
2022-10-09T22:45:19.476Z,13.70
2022-10-09T22:47:49.328Z,13.60
2022-10-09T22:50:16.490Z,13.70
2022-10-09T22:52:43.459Z,13.70
2022-10-09T22:55:10.488Z,13.60
2022-10-09T22:57:37.435Z,13.50
2022-10-09T23:00:05.715Z,13.60
2022-10-09T23:02:32.744Z,13.40
2022-10-09T23:04:59.665Z,13.40
2022-10-09T23:07:26.862Z,13.30
2022-10-09T23:09:54.203Z,13.40
2022-10-09T23:12:21.286Z,13.30
2022-10-09T23:14:48.348Z,13.30
2022-10-09T23:17:15.178Z,13.30
2022-10-09T23:19:42.184Z,13.40
2022-10-09T23:22:09.386Z,13.20
2022-10-09T23:24:36.489Z,13.30
2022-10-09T23:27:03.551Z,13.20
2022-10-09T23:29:31.814Z,13.30
2022-10-09T23:31:58.693Z,13.20
2022-10-09T23:34:25.535Z,13.20
2022-10-09T23:36:52.348Z,13.30
2022-10-09T23:39:19.462Z,13.40
2022-10-09T23:41:46.487Z,13.50
2022-10-09T23:44:13.327Z,13.40
2022-10-09T23:46:40.446Z,13.30
2022-10-09T23:49:07.380Z,13.20
2022-10-09T23:51:34.238Z,13.10
2022-10-09T23:54:01.245Z,13.10
2022-10-09T23:56:31.312Z,13.30
2022-10-09T23:58:59.820Z,13.40
